createdAt,value
2023-05-05T00:00:29.810Z,2.37
2023-05-05T00:03:15.957Z,2.53
2023-05-05T00:06:05.630Z,2.23
2023-05-05T00:08:51.519Z,2.40
2023-05-05T00:11:36.853Z,2.47
2023-05-05T00:14:22.052Z,2.27
2023-05-05T00:17:09.586Z,2.30
2023-05-05T00:19:55.808Z,2.30
2023-05-05T00:22:41.332Z,1.50
2023-05-05T00:25:27.844Z,1.87
2023-05-05T00:28:16.229Z,2.60
2023-05-05T00:31:01.775Z,2.13
2023-05-05T00:33:47.378Z,2.40
2023-05-05T00:36:32.704Z,1.97
2023-05-05T00:39:17.998Z,2.03
2023-05-05T00:42:07.974Z,2.47
2023-05-05T00:44:55.754Z,2.40
2023-05-05T00:48:01.985Z,1.90
2023-05-05T00:50:47.349Z,1.70
2023-05-05T00:53:33.215Z,2.53
2023-05-05T00:56:22.130Z,2.00
2023-05-05T00:59:09.914Z,2.40
2023-05-05T01:01:55.498Z,2.20
2023-05-05T01:04:40.969Z,2.13
2023-05-05T01:07:41.141Z,2.40
2023-05-05T01:10:46.907Z,2.27
2023-05-05T01:13:43.917Z,2.07
2023-05-05T01:16:32.704Z,2.50
2023-05-05T01:19:56.142Z,2.20
2023-05-05T01:22:53.220Z,2.73
2023-05-05T01:25:53.601Z,1.80
2023-05-05T01:29:07.435Z,1.77
2023-05-05T01:31:54.835Z,2.60
2023-05-05T01:34:56.011Z,2.33
2023-05-05T01:38:21.678Z,2.57
2023-05-05T01:41:19.633Z,2.20
2023-05-05T01:44:06.350Z,1.90
2023-05-05T01:46:56.012Z,2.50
2023-05-05T01:49:44.090Z,2.23
2023-05-05T01:52:30.452Z,2.10
2023-05-05T01:55:21.590Z,2.80
2023-05-05T01:58:08.878Z,2.47
2023-05-05T02:00:56.687Z,1.87
2023-05-05T02:03:43.867Z,2.37
2023-05-05T02:06:32.535Z,1.90
2023-05-05T02:09:18.147Z,2.57
2023-05-05T02:12:04.604Z,2.70
2023-05-05T02:14:52.233Z,2.30
2023-05-05T02:17:41.015Z,2.20
2023-05-05T02:20:28.175Z,2.40
2023-05-05T02:23:14.305Z,1.87
2023-05-05T02:26:08.066Z,2.10
2023-05-05T02:29:17.698Z,1.70
2023-05-05T02:32:09.416Z,2.13
2023-05-05T02:34:57.520Z,1.97
2023-05-05T02:37:48.228Z,2.13
2023-05-05T02:40:36.012Z,2.10
2023-05-05T02:43:23.964Z,2.10
2023-05-05T02:46:09.484Z,2.30
2023-05-05T02:48:55.355Z,2.63
2023-05-05T02:51:43.705Z,2.13
2023-05-05T02:54:31.720Z,2.23
2023-05-05T02:57:19.955Z,2.33
2023-05-05T03:00:15.181Z,2.13
2023-05-05T03:03:22.168Z,2.70
2023-05-05T03:06:21.321Z,2.10
2023-05-05T03:09:13.097Z,2.10
2023-05-05T03:12:04.561Z,2.60
2023-05-05T03:14:52.239Z,2.07
2023-05-05T03:17:43.532Z,2.40
2023-05-05T03:20:30.145Z,2.37
2023-05-05T03:23:18.364Z,2.77
2023-05-05T03:26:03.975Z,1.90
2023-05-05T03:28:49.480Z,2.13
2023-05-05T03:31:35.244Z,2.33
2023-05-05T03:34:21.215Z,2.17
2023-05-05T03:37:06.931Z,2.10
2023-05-05T03:39:52.375Z,2.30
2023-05-05T03:42:40.739Z,2.50
2023-05-05T03:45:26.479Z,2.70
2023-05-05T03:48:11.747Z,2.70
2023-05-05T03:50:57.100Z,2.37
2023-05-05T03:53:42.479Z,2.50
2023-05-05T03:56:28.010Z,2.30
2023-05-05T03:59:18.023Z,2.40
2023-05-05T04:02:03.696Z,2.47
2023-05-05T04:04:49.392Z,2.40
2023-05-05T04:07:34.845Z,2.90
2023-05-05T04:10:20.107Z,2.23
2023-05-05T04:13:08.752Z,2.20
2023-05-05T04:15:54.911Z,1.93
2023-05-05T04:18:40.370Z,2.73
2023-05-05T04:21:28.805Z,3.20
2023-05-05T04:24:14.477Z,2.50
2023-05-05T04:27:02.334Z,2.20
2023-05-05T04:29:47.964Z,2.00
2023-05-05T04:32:33.366Z,2.13
2023-05-05T04:35:19.329Z,2.07
2023-05-05T04:38:04.885Z,2.47
2023-05-05T04:40:50.956Z,2.57
2023-05-05T04:43:38.861Z,2.30
2023-05-05T04:46:25.083Z,2.70
2023-05-05T04:49:10.589Z,2.63
2023-05-05T04:52:01.225Z,1.90
2023-05-05T04:54:46.340Z,2.33
2023-05-05T04:57:34.097Z,2.87
2023-05-05T05:00:19.538Z,2.20
2023-05-05T05:03:05.199Z,2.83
2023-05-05T05:05:51.429Z,2.40
2023-05-05T05:08:36.956Z,2.53
2023-05-05T05:11:22.491Z,2.50
2023-05-05T05:14:07.718Z,2.10
2023-05-05T05:16:53.291Z,2.63
2023-05-05T05:19:39.229Z,2.60
2023-05-05T05:22:24.729Z,3.00
2023-05-05T05:25:10.983Z,2.30
2023-05-05T05:28:09.503Z,2.10
2023-05-05T05:30:56.018Z,3.00
2023-05-05T05:33:41.706Z,2.43
2023-05-05T05:36:29.207Z,2.60
2023-05-05T05:39:14.477Z,2.87
2023-05-05T05:41:59.769Z,2.60
2023-05-05T05:44:45.127Z,2.97
2023-05-05T05:47:30.760Z,2.50
2023-05-05T05:50:16.577Z,2.60
2023-05-05T05:53:02.121Z,2.40
2023-05-05T05:55:49.581Z,2.53
2023-05-05T05:58:34.742Z,3.07
2023-05-05T06:01:20.219Z,2.60
2023-05-05T06:04:05.640Z,2.90
2023-05-05T06:06:51.656Z,2.73
2023-05-05T06:09:39.894Z,2.47
2023-05-05T06:12:25.533Z,2.80
2023-05-05T06:15:12.858Z,2.60
2023-05-05T06:17:58.417Z,2.20
2023-05-05T06:20:49.567Z,2.97
2023-05-05T06:23:34.667Z,3.00
2023-05-05T06:26:22.716Z,2.50
2023-05-05T06:29:12.227Z,2.70
2023-05-05T06:31:58.123Z,2.93
2023-05-05T06:34:44.668Z,2.93
2023-05-05T06:37:32.291Z,2.73
2023-05-05T06:40:17.790Z,2.60
2023-05-05T06:43:03.236Z,2.60
2023-05-05T06:45:48.616Z,2.50
2023-05-05T06:48:33.980Z,3.03
2023-05-05T06:51:19.766Z,2.20
2023-05-05T06:54:05.223Z,2.30
2023-05-05T06:56:50.556Z,2.57
2023-05-05T06:59:36.467Z,2.70
2023-05-05T07:02:22.511Z,2.30
2023-05-05T07:05:11.298Z,2.50
2023-05-05T07:07:57.508Z,2.60
2023-05-05T07:10:42.902Z,2.50
2023-05-05T07:13:33.155Z,2.40
2023-05-05T07:16:19.213Z,2.00
2023-05-05T07:19:07.628Z,2.40
2023-05-05T07:21:52.908Z,2.70
2023-05-05T07:24:38.645Z,2.50
2023-05-05T07:27:24.272Z,2.57
2023-05-05T07:30:14.059Z,2.60
2023-05-05T07:33:04.642Z,2.87
2023-05-05T07:35:50.704Z,2.30
2023-05-05T07:38:36.129Z,2.53
2023-05-05T07:41:21.594Z,2.83
2023-05-05T07:44:06.982Z,2.07
2023-05-05T07:46:52.328Z,2.50
2023-05-05T07:49:37.681Z,2.30
2023-05-05T07:52:37.356Z,3.00
2023-05-05T07:55:31.584Z,2.40
2023-05-05T07:58:17.537Z,2.77
2023-05-05T08:01:03.349Z,2.33
2023-05-05T08:03:49.026Z,2.80
2023-05-05T08:06:34.757Z,2.53
2023-05-05T08:09:20.025Z,2.00
2023-05-05T08:12:06.030Z,3.10
2023-05-05T08:14:51.569Z,2.50
2023-05-05T08:17:48.574Z,2.80
2023-05-05T08:20:34.052Z,2.57
2023-05-05T08:23:19.636Z,2.63
2023-05-05T08:26:06.991Z,2.63
2023-05-05T08:28:55.374Z,2.60
2023-05-05T08:31:40.921Z,2.83
2023-05-05T08:34:26.828Z,2.40
2023-05-05T08:37:14.522Z,2.93
2023-05-05T08:40:00.371Z,2.73
2023-05-05T08:42:46.505Z,2.43
2023-05-05T08:45:32.735Z,2.40
2023-05-05T08:48:25.446Z,2.33
2023-05-05T08:51:16.622Z,2.53
2023-05-05T08:54:06.909Z,2.37
2023-05-05T08:56:53.750Z,3.03
2023-05-05T08:59:39.832Z,2.70
2023-05-05T09:02:29.837Z,3.37
2023-05-05T09:05:16.662Z,2.70
2023-05-05T09:08:02.973Z,2.70
2023-05-05T09:10:49.101Z,2.37
2023-05-05T09:13:35.130Z,2.90
2023-05-05T09:16:20.418Z,2.83
2023-05-05T09:19:05.975Z,2.83
2023-05-05T09:21:51.944Z,3.10
2023-05-05T09:24:37.537Z,2.67
2023-05-05T09:27:25.549Z,2.47
2023-05-05T09:30:13.263Z,2.53
2023-05-05T09:32:59.256Z,2.73
2023-05-05T09:35:49.005Z,2.73
2023-05-05T09:38:36.451Z,2.53
2023-05-05T09:41:39.714Z,2.83
2023-05-05T09:44:37.165Z,2.10
2023-05-05T09:47:34.773Z,2.10
2023-05-05T09:50:21.013Z,2.50
2023-05-05T09:53:07.256Z,2.40
2023-05-05T09:55:54.474Z,2.53
2023-05-05T09:58:40.056Z,2.43
2023-05-05T10:01:26.103Z,3.07
2023-05-05T10:04:31.568Z,2.27
2023-05-05T10:07:26.825Z,2.70
2023-05-05T10:10:16.566Z,2.83
2023-05-05T10:13:02.771Z,2.40
2023-05-05T10:15:53.471Z,2.50
2023-05-05T10:18:46.311Z,3.10
2023-05-05T10:21:42.026Z,2.93
2023-05-05T10:24:40.790Z,2.33
2023-05-05T10:27:29.030Z,2.30
2023-05-05T10:30:24.163Z,3.00
2023-05-05T10:36:09.916Z,2.10
2023-05-05T10:38:59.495Z,2.37
2023-05-05T10:41:47.241Z,2.73
2023-05-05T10:44:33.632Z,2.57
2023-05-05T10:47:27.792Z,2.47
2023-05-05T10:50:25.868Z,2.30
2023-05-05T10:53:24.755Z,2.10
2023-05-05T10:56:31.126Z,2.27
2023-05-05T10:59:39.280Z,2.83
2023-05-05T11:02:27.295Z,2.40
2023-05-05T11:05:21.983Z,2.30
2023-05-05T11:08:26.502Z,2.40
2023-05-05T11:11:12.689Z,2.60
2023-05-05T11:14:23.730Z,2.60
2023-05-05T11:17:50.520Z,2.50
2023-05-05T11:20:36.803Z,1.90
2023-05-05T11:23:22.621Z,1.90
2023-05-05T11:26:08.840Z,2.03
2023-05-05T11:28:59.319Z,2.20
2023-05-05T11:31:47.836Z,2.20
2023-05-05T11:34:33.542Z,2.33
2023-05-05T11:37:23.746Z,2.30
2023-05-05T11:40:27.913Z,2.10
2023-05-05T11:43:13.191Z,2.00
2023-05-05T11:46:11.985Z,1.70
2023-05-05T11:48:57.603Z,1.90
2023-05-05T11:51:43.731Z,2.13
2023-05-05T11:54:29.916Z,2.20
2023-05-05T11:57:21.105Z,2.37
2023-05-05T12:00:09.088Z,1.93
2023-05-05T12:02:58.156Z,1.83
2023-05-05T12:05:44.597Z,2.07
2023-05-05T12:08:38.759Z,2.30
2023-05-05T12:11:24.003Z,2.27
2023-05-05T12:14:11.036Z,1.97
2023-05-05T12:17:01.464Z,1.60
2023-05-05T12:19:52.716Z,1.93
2023-05-05T12:22:41.376Z,2.10
2023-05-05T12:25:35.820Z,2.10
2023-05-05T12:28:21.285Z,2.27
2023-05-05T12:31:06.984Z,1.63
2023-05-05T12:33:52.647Z,1.77
2023-05-05T12:36:39.301Z,1.90
2023-05-05T12:39:36.379Z,2.10
2023-05-05T12:42:22.929Z,2.23
2023-05-05T12:45:17.569Z,2.17
2023-05-05T12:48:21.438Z,1.60
2023-05-05T12:51:11.771Z,1.40
2023-05-05T12:54:05.414Z,1.50
2023-05-05T12:56:51.337Z,1.45
2023-05-05T12:59:39.386Z,1.75
2023-05-05T13:02:34.314Z,1.58
2023-05-05T13:05:34.090Z,1.80
2023-05-05T13:08:19.624Z,1.42
2023-05-05T13:11:05.003Z,1.23
2023-05-05T13:13:51.160Z,1.20
2023-05-05T13:16:36.753Z,1.48
2023-05-05T13:19:25.630Z,1.20
2023-05-05T13:22:13.559Z,1.40
2023-05-05T13:25:02.153Z,1.30
2023-05-05T13:27:47.435Z,1.58
2023-05-05T13:30:32.941Z,1.10
2023-05-05T13:33:18.593Z,1.35
2023-05-05T13:36:04.540Z,1.40
2023-05-05T13:38:54.691Z,1.35
2023-05-05T13:41:40.218Z,1.23
2023-05-05T13:44:25.543Z,1.30
2023-05-05T13:47:10.787Z,1.10
2023-05-05T13:49:56.869Z,1.10
2023-05-05T13:52:42.735Z,0.95
2023-05-05T13:55:29.004Z,1.10
2023-05-05T13:58:17.603Z,0.80
2023-05-05T14:01:03.437Z,0.90
2023-05-05T14:03:49.375Z,1.40
2023-05-05T14:06:36.222Z,1.30
2023-05-05T14:09:24.223Z,0.98
2023-05-05T14:12:09.865Z,1.10
2023-05-05T14:14:55.542Z,1.10
2023-05-05T14:17:40.950Z,1.10
2023-05-05T14:20:29.775Z,1.08
2023-05-05T14:23:15.349Z,1.20
2023-05-05T14:26:01.280Z,1.20
2023-05-05T14:28:48.947Z,1.40
2023-05-05T14:31:39.802Z,1.45
2023-05-05T14:34:25.138Z,1.10
2023-05-05T14:37:10.547Z,1.65
2023-05-05T14:39:56.212Z,1.88
2023-05-05T14:42:41.811Z,1.33
2023-05-05T14:45:29.532Z,1.63
2023-05-05T14:48:17.060Z,1.70
2023-05-05T14:51:02.684Z,1.70
2023-05-05T14:53:48.486Z,1.73
2023-05-05T14:56:33.992Z,1.47
2023-05-05T14:59:19.369Z,1.60
2023-05-05T15:02:04.992Z,1.80
2023-05-05T15:04:52.695Z,3.00
2023-05-05T15:07:38.622Z,1.73
2023-05-05T15:10:24.380Z,1.90
2023-05-05T15:13:11.874Z,1.80
2023-05-05T15:15:57.737Z,2.03
2023-05-05T15:18:46.039Z,2.20
2023-05-05T15:21:31.909Z,2.00
2023-05-05T15:24:19.794Z,1.83
2023-05-05T15:27:08.254Z,1.70
2023-05-05T15:29:54.429Z,2.07
2023-05-05T15:32:42.519Z,2.00
2023-05-05T15:35:27.786Z,2.50
2023-05-05T15:38:15.335Z,1.83
2023-05-05T15:41:05.909Z,2.03
2023-05-05T15:43:52.179Z,2.20
2023-05-05T15:46:37.836Z,1.80
2023-05-05T15:49:23.601Z,2.60
2023-05-05T15:52:14.009Z,2.07
2023-05-05T15:55:02.046Z,2.10
2023-05-05T15:57:49.908Z,2.03
2023-05-05T16:00:38.521Z,1.83
2023-05-05T16:03:24.260Z,1.67
2023-05-05T16:06:11.960Z,2.13
2023-05-05T16:08:58.641Z,2.23
2023-05-05T16:11:44.870Z,1.60
2023-05-05T16:14:32.761Z,2.10
2023-05-05T16:17:18.314Z,1.53
2023-05-05T16:20:05.063Z,2.00
2023-05-05T16:22:50.477Z,2.17
2023-05-05T16:25:36.151Z,2.10
2023-05-05T16:28:22.008Z,1.90
2023-05-05T16:31:10.506Z,1.77
2023-05-05T16:33:56.305Z,2.40
2023-05-05T16:36:44.154Z,2.13
2023-05-05T16:39:29.856Z,2.50
2023-05-05T16:42:15.489Z,2.47
2023-05-05T16:45:00.987Z,2.23
2023-05-05T16:47:46.474Z,2.00
2023-05-05T16:50:32.085Z,2.50
2023-05-05T16:53:17.319Z,2.23
2023-05-05T16:56:05.530Z,2.30
2023-05-05T16:58:51.078Z,2.40
2023-05-05T17:01:36.851Z,2.60
2023-05-05T17:04:23.277Z,2.53
2023-05-05T17:07:08.812Z,1.80
2023-05-05T17:09:53.968Z,2.40
2023-05-05T17:12:39.564Z,2.50
2023-05-05T17:15:28.024Z,1.40
2023-05-05T17:18:16.297Z,1.80
2023-05-05T17:21:02.420Z,2.20
2023-05-05T17:23:48.057Z,1.93
2023-05-05T17:26:36.452Z,2.47
2023-05-05T17:29:23.428Z,2.50
2023-05-05T17:32:10.526Z,1.83
2023-05-05T17:34:56.388Z,2.23
2023-05-05T17:37:42.229Z,1.93
2023-05-05T17:40:29.724Z,2.23
2023-05-05T17:43:17.324Z,2.00
2023-05-05T17:46:05.236Z,2.53
2023-05-05T17:48:51.216Z,2.80
2023-05-05T17:51:38.862Z,2.23
2023-05-05T17:54:24.633Z,3.23
2023-05-05T17:57:10.275Z,2.97
2023-05-05T17:59:55.904Z,2.23
2023-05-05T18:02:41.954Z,2.67
2023-05-05T18:05:28.596Z,2.97
2023-05-05T18:08:14.242Z,2.80
2023-05-05T18:11:00.447Z,2.50
2023-05-05T18:13:46.156Z,2.60
2023-05-05T18:16:36.075Z,2.23
2023-05-05T18:19:23.760Z,2.60
2023-05-05T18:22:08.940Z,2.60
2023-05-05T18:24:59.068Z,3.20
2023-05-05T18:27:49.692Z,2.33
2023-05-05T18:30:36.167Z,3.10
2023-05-05T18:33:21.394Z,3.33
2023-05-05T18:36:07.807Z,2.80
2023-05-05T18:38:56.817Z,2.90
2023-05-05T18:41:42.374Z,2.53
2023-05-05T18:44:27.623Z,2.80
2023-05-05T18:47:13.033Z,3.17
2023-05-05T18:50:00.225Z,2.60
2023-05-05T18:52:45.688Z,2.70
2023-05-05T18:55:31.510Z,3.23
2023-05-05T18:58:17.675Z,3.60
2023-05-05T19:01:03.280Z,2.40
2023-05-05T19:03:49.446Z,2.93
2023-05-05T19:06:38.551Z,2.80
2023-05-05T19:09:24.206Z,3.07
2023-05-05T19:12:09.755Z,2.70
2023-05-05T19:14:55.821Z,3.40
2023-05-05T19:17:44.152Z,3.60
2023-05-05T19:20:32.469Z,2.73
2023-05-05T19:23:17.732Z,2.50
2023-05-05T19:26:06.523Z,2.47
2023-05-05T19:28:52.374Z,3.10
2023-05-05T19:31:38.146Z,2.87
2023-05-05T19:34:26.133Z,3.17
2023-05-05T19:37:12.478Z,2.60
2023-05-05T19:39:58.035Z,2.30
2023-05-05T19:42:46.677Z,2.73
2023-05-05T19:45:37.102Z,2.80
2023-05-05T19:48:24.728Z,2.33
2023-05-05T19:51:10.519Z,2.40
2023-05-05T19:53:56.127Z,3.03
2023-05-05T19:56:41.393Z,3.10
2023-05-05T19:59:29.999Z,2.60
2023-05-05T20:02:20.294Z,3.10
2023-05-05T20:05:06.807Z,2.27
2023-05-05T20:07:52.988Z,2.33
2023-05-05T20:10:38.719Z,2.50
2023-05-05T20:13:24.417Z,3.10
2023-05-05T20:16:10.316Z,2.47
2023-05-05T20:18:56.138Z,2.80
2023-05-05T20:21:41.443Z,2.10
2023-05-05T20:24:29.897Z,2.80
2023-05-05T20:27:17.792Z,2.37
2023-05-05T20:30:04.131Z,2.67
2023-05-05T20:32:50.863Z,2.80
2023-05-05T20:35:40.991Z,3.10
2023-05-05T20:38:26.467Z,2.37
2023-05-05T20:41:14.980Z,2.53
2023-05-05T20:44:00.734Z,2.80
2023-05-05T20:46:46.298Z,2.80
2023-05-05T20:49:34.679Z,2.20
2023-05-05T20:52:20.263Z,2.63
2023-05-05T20:55:08.167Z,2.57
2023-05-05T20:57:54.225Z,2.97
2023-05-05T21:00:40.097Z,2.97
2023-05-05T21:03:25.945Z,2.70
2023-05-05T21:06:12.213Z,3.00
2023-05-05T21:09:01.088Z,3.10
2023-05-05T21:11:47.201Z,2.30
2023-05-05T21:14:33.362Z,3.43
2023-05-05T21:17:18.716Z,3.30
2023-05-05T21:20:05.812Z,2.50
2023-05-05T21:22:50.912Z,2.67
2023-05-05T21:25:37.532Z,2.83
2023-05-05T21:28:23.125Z,3.20
2023-05-05T21:33:56.777Z,2.80
2023-05-05T21:36:42.168Z,2.90
2023-05-05T21:39:28.324Z,2.30
2023-05-05T21:42:16.553Z,2.63
2023-05-05T21:45:01.961Z,3.47
2023-05-05T21:47:47.285Z,2.60
2023-05-05T21:50:32.916Z,3.23
2023-05-05T21:53:18.459Z,2.60
2023-05-05T21:56:06.073Z,3.30
2023-05-05T21:58:51.406Z,2.60
2023-05-05T22:01:36.956Z,2.77
2023-05-05T22:04:22.537Z,2.70
2023-05-05T22:07:07.803Z,2.80
2023-05-05T22:09:53.149Z,2.70
2023-05-05T22:12:38.820Z,2.57
2023-05-05T22:15:27.624Z,3.33
2023-05-05T22:18:15.910Z,2.33
2023-05-05T22:21:04.186Z,2.57
2023-05-05T22:23:49.912Z,2.67
2023-05-05T22:26:35.524Z,2.43
2023-05-05T22:29:21.333Z,2.80
2023-05-05T22:32:09.452Z,2.37
2023-05-05T22:34:54.895Z,2.80
2023-05-05T22:37:40.397Z,3.33
2023-05-05T22:40:25.821Z,2.87
2023-05-05T22:43:11.659Z,2.87
2023-05-05T22:45:59.546Z,2.37
2023-05-05T22:48:47.044Z,2.97
2023-05-05T22:51:32.459Z,2.57
2023-05-05T22:54:19.713Z,2.33
2023-05-05T22:57:05.425Z,2.80
2023-05-05T22:59:53.367Z,3.07
2023-05-05T23:02:39.762Z,3.13
2023-05-05T23:05:27.461Z,3.10
2023-05-05T23:08:12.783Z,2.90
2023-05-05T23:10:58.868Z,2.40
2023-05-05T23:13:44.590Z,2.80
2023-05-05T23:16:30.622Z,2.33
2023-05-05T23:19:16.480Z,2.70
2023-05-05T23:22:02.327Z,2.77
2023-05-05T23:24:47.970Z,3.10
2023-05-05T23:27:33.147Z,3.07
2023-05-05T23:30:21.308Z,2.70
2023-05-05T23:33:08.902Z,2.53
2023-05-05T23:35:54.598Z,2.80
2023-05-05T23:38:42.252Z,2.67
2023-05-05T23:41:30.080Z,2.97
2023-05-05T23:44:15.393Z,3.00
2023-05-05T23:47:01.157Z,3.00
2023-05-05T23:49:46.501Z,2.60
2023-05-05T23:52:31.768Z,2.57
2023-05-05T23:55:17.105Z,3.30
2023-05-05T23:58:03.005Z,3.23
